Time;durP1;ratioP1;P1;durP2;ratioP2;P2;SDS_P1;SDS_P2;PMS_P1;PMS_P2;Temp;Humidity;BMP_temperature;BMP_pressure;BME280_temperature;BME280_humidity;BME280_pressure;Samples;Min_cycle;Max_cycle;Signal;HPM_P1;HPM_P2
2022/03/17 00:00:07;;;;;;;42.67;27.45;;;;;;;;;;5127473;28;20423;-81
2022/03/17 00:02:33;;;;;;;39.47;26.25;;;;;;;;;;5127010;28;20061;-80
2022/03/17 00:04:59;;;;;;;40.90;26.75;;;;;;;;;;5110394;28;20332;-80
2022/03/17 00:07:25;;;;;;;39.05;25.92;;;;;;;;;;5127293;28;20119;-80
2022/03/17 00:09:51;;;;;;;37.47;26.67;;;;;;;;;;5109439;28;20123;-80
2022/03/17 00:12:17;;;;;;;37.08;26.85;;;;;;;;;;5109524;28;20042;-79
2022/03/17 00:14:43;;;;;;;40.05;27.38;;;;;;;;;;5127463;28;20039;-80
2022/03/17 00:17:09;;;;;;;37.10;26.88;;;;;;;;;;5111093;28;20036;-80
2022/03/17 00:19:38;;;;;;;37.35;27.33;;;;;;;;;;5110780;28;20035;-81
2022/03/17 00:22:08;;;;;;;40.72;27.23;;;;;;;;;;5109689;28;20040;-80
2022/03/17 00:24:37;;;;;;;39.72;27.83;;;;;;;;;;5115400;28;20054;-79
2022/03/17 00:27:08;;;;;;;41.90;27.63;;;;;;;;;;5119367;28;20040;-78
2022/03/17 00:29:34;;;;;;;38.47;27.42;;;;;;;;;;5130566;28;20032;-81
2022/03/17 00:32:00;;;;;;;41.22;29.38;;;;;;;;;;5107226;28;20058;-81
2022/03/17 00:34:26;;;;;;;40.05;27.60;;;;;;;;;;5124953;28;20027;-81
2022/03/17 00:36:52;;;;;;;40.03;28.27;;;;;;;;;;5124487;28;20490;-80
2022/03/17 00:39:18;;;;;;;39.47;28.08;;;;;;;;;;5124098;28;20039;-80
2022/03/17 00:41:44;;;;;;;42.03;28.90;;;;;;;;;;5107273;28;20046;-80
2022/03/17 00:44:11;;;;;;;39.83;28.23;;;;;;;;;;5125175;28;20050;-81
2022/03/17 00:46:37;;;;;;;40.05;28.90;;;;;;;;;;5124380;28;20122;-81
2022/03/17 00:49:03;;;;;;;40.33;28.60;;;;;;;;;;5125196;28;20035;-81
2022/03/17 00:51:29;;;;;;;41.88;28.45;;;;;;;;;;5125146;28;20039;-80
2022/03/17 00:53:56;;;;;;;45.42;28.95;;;;;;;;;;5107806;28;20172;-81
2022/03/17 00:56:22;;;;;;;41.10;28.98;;;;;;;;;;5125889;28;20032;-78
2022/03/17 00:58:49;;;;;;;41.47;28.27;;;;;;;;;;5136489;28;20100;-79
2022/03/17 01:01:18;;;;;;;40.97;28.60;;;;;;;;;;5135578;28;20043;-77
2022/03/17 01:03:44;;;;;;;43.85;30.00;;;;;;;;;;5126864;28;20077;-79
2022/03/17 01:06:10;;;;;;;42.17;28.77;;;;;;;;;;5106519;28;20073;-80
2022/03/17 01:08:36;;;;;;;42.13;28.30;;;;;;;;;;5106849;28;20039;-81
2022/03/17 01:11:03;;;;;;;47.58;29.75;;;;;;;;;;5123398;28;20088;-80
2022/03/17 01:13:29;;;;;;;44.63;29.58;;;;;;;;;;5123741;28;20032;-80
2022/03/17 01:15:55;;;;;;;40.97;29.30;;;;;;;;;;5106820;28;20049;-80
2022/03/17 01:18:21;;;;;;;46.72;30.20;;;;;;;;;;5106393;28;20075;-80
2022/03/17 01:20:48;;;;;;;42.97;29.80;;;;;;;;;;5123159;28;20035;-79
2022/03/17 01:23:14;;;;;;;43.55;29.65;;;;;;;;;;5123141;28;20059;-80
2022/03/17 01:25:40;;;;;;;47.28;29.67;;;;;;;;;;5124129;28;20040;-80
2022/03/17 01:28:06;;;;;;;40.63;29.63;;;;;;;;;;5108694;28;20031;-79
2022/03/17 01:30:32;;;;;;;43.22;29.73;;;;;;;;;;5134955;28;20036;-79
2022/03/17 01:32:58;;;;;;;41.13;30.02;;;;;;;;;;5110274;28;20451;-79
2022/03/17 01:35:24;;;;;;;39.83;29.63;;;;;;;;;;5115182;28;20083;-78
2022/03/17 01:37:50;;;;;;;45.72;30.85;;;;;;;;;;5118630;28;20059;-79
2022/03/17 01:40:16;;;;;;;46.85;30.50;;;;;;;;;;5135711;28;20043;-79
2022/03/17 01:42:42;;;;;;;43.58;29.90;;;;;;;;;;5135649;28;20108;-79
2022/03/17 01:45:08;;;;;;;41.40;30.38;;;;;;;;;;5127415;28;20167;-78
2022/03/17 01:47:36;;;;;;;43.05;30.40;;;;;;;;;;5103426;28;20473;-79
2022/03/17 01:50:10;;;;;;;49.42;30.80;;;;;;;;;;5121082;28;20070;-79
2022/03/17 01:52:35;;;;;;;;;;;;;;;;;;5104472;28;20042;-78
2022/03/17 01:55:01;;;;;;;44.00;30.30;;;;;;;;;;5120190;28;19908;-79
2022/03/17 01:57:27;;;;;;;44.05;31.15;;;;;;;;;;5103877;28;20044;-79
2022/03/17 01:59:54;;;;;;;43.33;30.15;;;;;;;;;;5104914;28;20035;-80
2022/03/17 02:02:20;;;;;;;44.28;30.60;;;;;;;;;;5103947;28;20117;-79
2022/03/17 02:04:47;;;;;;;46.75;31.75;;;;;;;;;;5103885;28;20043;-78
2022/03/17 02:07:14;;;;;;;47.40;31.17;;;;;;;;;;5121567;28;20047;-78
2022/03/17 02:09:40;;;;;;;44.83;30.83;;;;;;;;;;5103650;28;20099;-80
2022/03/17 02:14:52;;;;;;;43.97;30.77;;;;;;;;;;5120291;28;20035;-79
2022/03/17 02:17:18;;;;;;;44.13;30.80;;;;;;;;;;5102739;28;20091;-79
2022/03/17 02:19:44;;;;;;;44.05;30.42;;;;;;;;;;5120000;28;20443;-78
2022/03/17 02:22:11;;;;;;;45.90;30.35;;;;;;;;;;5102467;28;20059;-79
2022/03/17 02:27:22;;;;;;;45.90;30.23;;;;;;;;;;5121326;28;20036;-80
2022/03/17 02:29:48;;;;;;;46.08;30.38;;;;;;;;;;5103129;28;20020;-79
2022/03/17 02:32:15;;;;;;;41.47;30.17;;;;;;;;;;5103823;28;20092;-79
2022/03/17 02:34:44;;;;;;;44.55;30.35;;;;;;;;;;5110498;28;20039;-78
2022/03/17 02:37:12;;;;;;;44.00;30.63;;;;;;;;;;5125023;28;20054;-79
2022/03/17 02:39:38;;;;;;;45.55;30.83;;;;;;;;;;5120704;28;20051;-80
2022/03/17 02:42:05;;;;;;;45.65;30.63;;;;;;;;;;5120086;28;20040;-80
2022/03/17 02:44:32;;;;;;;45.10;30.33;;;;;;;;;;5118833;28;20039;-79
2022/03/17 02:46:58;;;;;;;48.75;31.17;;;;;;;;;;5104228;28;20115;-79
2022/03/17 02:49:24;;;;;;;43.88;31.67;;;;;;;;;;5102805;28;20063;-80
2022/03/17 02:51:50;;;;;;;46.63;31.10;;;;;;;;;;5119701;28;20096;-80
2022/03/17 02:54:16;;;;;;;46.25;31.00;;;;;;;;;;5105730;28;20035;-80
2022/03/17 02:56:42;;;;;;;41.72;30.15;;;;;;;;;;5121525;28;20035;-79
2022/03/17 02:59:08;;;;;;;44.28;31.70;;;;;;;;;;5121727;28;20039;-80
2022/03/17 03:01:34;;;;;;;47.10;31.48;;;;;;;;;;5104029;28;20031;-79
2022/03/17 03:04:00;;;;;;;46.45;32.15;;;;;;;;;;5103614;28;20047;-80
2022/03/17 03:06:26;;;;;;;48.35;32.00;;;;;;;;;;5103408;28;20120;-80
2022/03/17 03:08:52;;;;;;;46.22;32.47;;;;;;;;;;5119853;28;20096;-80
2022/03/17 03:11:18;;;;;;;47.38;31.25;;;;;;;;;;5121809;28;20435;-80
2022/03/17 03:13:45;;;;;;;43.00;31.15;;;;;;;;;;5122459;28;20453;-80
2022/03/17 03:16:13;;;;;;;44.85;31.00;;;;;;;;;;5121454;28;20142;-81
2022/03/17 03:18:40;;;;;;;48.75;32.47;;;;;;;;;;5121670;28;20034;-79
2022/03/17 03:21:07;;;;;;;44.58;31.27;;;;;;;;;;5104330;28;20348;-79
2022/03/17 03:23:33;;;;;;;42.83;30.75;;;;;;;;;;5104337;28;20040;-81
2022/03/17 03:25:59;;;;;;;44.72;30.60;;;;;;;;;;5104118;28;20040;-80
2022/03/17 03:28:25;;;;;;;46.85;31.88;;;;;;;;;;5103896;28;20111;-80
2022/03/17 03:30:53;;;;;;;48.15;31.65;;;;;;;;;;5120832;28;20064;-79
2022/03/17 03:33:19;;;;;;;43.67;30.88;;;;;;;;;;5120106;28;20036;-80
2022/03/17 03:38:29;;;;;;;47.20;32.38;;;;;;;;;;5121347;28;20039;-81
2022/03/17 03:40:55;;;;;;;48.80;32.78;;;;;;;;;;5129234;28;20043;-79
2022/03/17 03:43:21;;;;;;;47.03;33.25;;;;;;;;;;5122147;28;20466;-80
2022/03/17 03:45:50;;;;;;;46.95;32.25;;;;;;;;;;5120952;28;20036;-81
2022/03/17 03:48:16;;;;;;;54.50;33.22;;;;;;;;;;5121574;28;20026;-80
2022/03/17 03:50:42;;;;;;;48.13;32.40;;;;;;;;;;5132495;28;20044;-79
2022/03/17 03:53:08;;;;;;;45.92;33.97;;;;;;;;;;5134276;28;20062;-79
2022/03/17 03:55:34;;;;;;;46.33;33.28;;;;;;;;;;5118356;28;20035;-78
2022/03/17 03:58:00;;;;;;;48.75;33.15;;;;;;;;;;5125677;28;20376;-80
2022/03/17 04:02:55;;;;;;;48.33;33.65;;;;;;;;;;5124216;28;20066;-81
2022/03/17 04:05:26;;;;;;;48.83;33.85;;;;;;;;;;5110670;28;20484;-81
2022/03/17 04:07:55;;;;;;;49.60;34.95;;;;;;;;;;5125555;28;20114;-80
2022/03/17 04:10:21;;;;;;;48.33;35.28;;;;;;;;;;5106294;28;20039;-80
2022/03/17 04:12:47;;;;;;;51.80;34.00;;;;;;;;;;5123402;28;20371;-81
2022/03/17 04:15:13;;;;;;;47.50;33.95;;;;;;;;;;5106929;28;20031;-79
2022/03/17 04:17:39;;;;;;;48.25;33.60;;;;;;;;;;5106390;28;20036;-82
2022/03/17 04:20:06;;;;;;;50.42;33.90;;;;;;;;;;5123188;28;20050;-81
2022/03/17 04:22:32;;;;;;;46.55;33.53;;;;;;;;;;5115281;28;20053;-79
2022/03/17 04:24:58;;;;;;;50.17;33.75;;;;;;;;;;5117140;28;20438;-78
2022/03/17 04:27:25;;;;;;;48.58;34.40;;;;;;;;;;5133457;28;20039;-81
2022/03/17 04:29:51;;;;;;;47.25;33.15;;;;;;;;;;5130296;28;20036;-81
2022/03/17 04:32:17;;;;;;;49.33;34.42;;;;;;;;;;5132123;28;20043;-81
2022/03/17 04:34:43;;;;;;;52.78;34.00;;;;;;;;;;5132342;28;20043;-82
2022/03/17 04:37:09;;;;;;;47.83;33.88;;;;;;;;;;5122453;28;20040;-81
2022/03/17 04:39:35;;;;;;;51.38;34.03;;;;;;;;;;5105824;28;20089;-80
2022/03/17 04:42:01;;;;;;;48.53;34.15;;;;;;;;;;5105705;28;20054;-81
2022/03/17 04:44:27;;;;;;;50.58;35.53;;;;;;;;;;5106505;28;20036;-81
2022/03/17 04:46:53;;;;;;;46.78;34.28;;;;;;;;;;5125120;28;20354;-81
2022/03/17 04:49:22;;;;;;;51.03;35.58;;;;;;;;;;5107345;28;20446;-80
2022/03/17 04:51:48;;;;;;;50.35;34.58;;;;;;;;;;5106466;28;20036;-80
2022/03/17 04:54:14;;;;;;;50.00;35.45;;;;;;;;;;5122784;28;20040;-81
2022/03/17 04:56:40;;;;;;;51.63;35.70;;;;;;;;;;5121783;28;20413;-80
2022/03/17 04:59:06;;;;;;;50.88;35.97;;;;;;;;;;5123615;28;20035;-82
2022/03/17 05:01:32;;;;;;;49.83;34.47;;;;;;;;;;5126235;28;20068;-81
2022/03/17 05:04:01;;;;;;;48.42;34.97;;;;;;;;;;5125548;28;20060;-81
2022/03/17 05:06:27;;;;;;;54.13;35.58;;;;;;;;;;5123740;28;20106;-80
2022/03/17 05:08:53;;;;;;;48.60;35.80;;;;;;;;;;5122169;28;20051;-80
2022/03/17 05:11:20;;;;;;;52.50;36.95;;;;;;;;;;5104775;28;20032;-81
2022/03/17 05:13:48;;;;;;;53.10;37.83;;;;;;;;;;5121422;28;20060;-81
2022/03/17 05:16:14;;;;;;;54.63;37.15;;;;;;;;;;5121404;28;20179;-80
2022/03/17 05:18:40;;;;;;;54.10;38.00;;;;;;;;;;5121785;28;20047;-82
2022/03/17 05:21:06;;;;;;;55.42;38.15;;;;;;;;;;5104653;28;20062;-80
2022/03/17 05:23:33;;;;;;;55.47;39.33;;;;;;;;;;5122680;28;20074;-81
2022/03/17 05:25:59;;;;;;;55.40;40.25;;;;;;;;;;5121884;28;20043;-80
2022/03/17 05:28:25;;;;;;;56.28;38.75;;;;;;;;;;5104685;28;20036;-83
2022/03/17 05:30:51;;;;;;;58.72;40.80;;;;;;;;;;5120072;28;20050;-80
2022/03/17 05:33:18;;;;;;;61.20;40.92;;;;;;;;;;5103484;28;20035;-79
2022/03/17 05:35:44;;;;;;;61.70;42.55;;;;;;;;;;5103303;28;20045;-78
2022/03/17 05:38:10;;;;;;;60.25;41.42;;;;;;;;;;5102912;28;20095;-79
2022/03/17 05:40:36;;;;;;;59.63;41.40;;;;;;;;;;5103368;28;20050;-80
2022/03/17 05:43:06;;;;;;;61.92;43.13;;;;;;;;;;5104075;28;20035;-79
2022/03/17 05:45:32;;;;;;;62.45;43.15;;;;;;;;;;5125700;28;20255;-78
2022/03/17 05:47:59;;;;;;;64.38;44.38;;;;;;;;;;5113941;28;20453;-78
2022/03/17 05:50:27;;;;;;;64.88;45.00;;;;;;;;;;5136323;28;20063;-77
2022/03/17 05:52:53;;;;;;;69.63;45.33;;;;;;;;;;5140375;28;20125;-82
2022/03/17 05:55:19;;;;;;;65.22;46.47;;;;;;;;;;5140544;28;20414;-79
2022/03/17 05:57:46;;;;;;;71.35;46.92;;;;;;;;;;5121331;28;20069;-79
2022/03/17 06:00:13;;;;;;;78.55;49.13;;;;;;;;;;5114969;28;20047;-77
2022/03/17 06:02:39;;;;;;;72.47;48.30;;;;;;;;;;5120725;28;20562;-77
2022/03/17 06:05:05;;;;;;;78.88;49.90;;;;;;;;;;5104819;28;20047;-77
2022/03/17 06:07:37;;;;;;;82.75;51.22;;;;;;;;;;5122635;28;20048;-77
2022/03/17 06:10:05;;;;;;;79.55;51.28;;;;;;;;;;5122966;28;20047;-78
2022/03/17 06:12:31;;;;;;;84.55;52.60;;;;;;;;;;5121987;28;20405;-79
2022/03/17 06:14:57;;;;;;;80.20;52.15;;;;;;;;;;5121961;28;20134;-79
2022/03/17 06:17:23;;;;;;;80.68;53.05;;;;;;;;;;5122272;28;20112;-79
2022/03/17 06:19:50;;;;;;;84.30;54.85;;;;;;;;;;5121358;28;20096;-78
2022/03/17 06:22:16;;;;;;;87.32;56.53;;;;;;;;;;5121519;28;20110;-79
2022/03/17 06:24:42;;;;;;;92.32;56.88;;;;;;;;;;5127024;28;20347;-81
2022/03/17 06:27:08;;;;;;;91.60;58.17;;;;;;;;;;5111679;28;20039;-81
2022/03/17 06:29:34;;;;;;;93.13;59.63;;;;;;;;;;5109767;28;20061;-79
2022/03/17 06:32:00;;;;;;;92.85;59.00;;;;;;;;;;5124874;28;20039;-79
2022/03/17 06:34:26;;;;;;;98.47;62.20;;;;;;;;;;5101868;28;20047;-79
2022/03/17 06:36:52;;;;;;;101.97;64.57;;;;;;;;;;5106206;28;20047;-79
2022/03/17 06:39:18;;;;;;;104.93;65.10;;;;;;;;;;5122758;28;20050;-79
2022/03/17 06:41:44;;;;;;;105.03;63.97;;;;;;;;;;5120574;28;20031;-83
2022/03/17 06:44:10;;;;;;;104.80;64.57;;;;;;;;;;5121298;28;20047;-82
2022/03/17 06:46:36;;;;;;;113.40;70.25;;;;;;;;;;5103200;28;20447;-82
2022/03/17 06:49:02;;;;;;;115.50;69.03;;;;;;;;;;5120567;28;20096;-82
2022/03/17 06:51:28;;;;;;;112.57;67.78;;;;;;;;;;5103856;28;20042;-82
2022/03/17 06:53:54;;;;;;;114.10;70.30;;;;;;;;;;5102683;28;20147;-82
2022/03/17 06:56:20;;;;;;;124.38;71.88;;;;;;;;;;5119364;28;20047;-82
2022/03/17 06:58:46;;;;;;;116.72;70.57;;;;;;;;;;5119314;28;20046;-83
2022/03/17 07:01:12;;;;;;;113.13;69.90;;;;;;;;;;5102867;28;20047;-82
2022/03/17 07:03:38;;;;;;;105.13;64.90;;;;;;;;;;5102666;28;20054;-82
2022/03/17 07:06:04;;;;;;;107.18;62.75;;;;;;;;;;5118961;28;20035;-82
2022/03/17 07:08:30;;;;;;;104.55;62.45;;;;;;;;;;5119330;28;20046;-82
2022/03/17 07:10:56;;;;;;;98.20;58.85;;;;;;;;;;5120387;28;20035;-82
2022/03/17 07:13:22;;;;;;;99.18;58.60;;;;;;;;;;5102333;28;20105;-82
2022/03/17 07:15:48;;;;;;;75.50;47.78;;;;;;;;;;5102451;28;20039;-82
2022/03/17 07:18:14;;;;;;;71.47;44.42;;;;;;;;;;5102364;28;20061;-82
2022/03/17 07:20:40;;;;;;;72.32;44.30;;;;;;;;;;5103240;28;20540;-83
2022/03/17 07:23:06;;;;;;;76.10;43.88;;;;;;;;;;5115016;28;20050;-81
2022/03/17 07:25:32;;;;;;;79.30;43.58;;;;;;;;;;5133913;28;20036;-82
2022/03/17 07:27:58;;;;;;;76.32;44.17;;;;;;;;;;5121431;28;20043;-83
2022/03/17 07:30:26;;;;;;;74.45;45.85;;;;;;;;;;5118855;28;20073;-80
2022/03/17 07:32:53;;;;;;;78.88;47.08;;;;;;;;;;5143440;28;20075;-80
2022/03/17 07:35:19;;;;;;;83.45;47.83;;;;;;;;;;5126646;28;20024;-79
2022/03/17 07:37:45;;;;;;;89.93;50.40;;;;;;;;;;5142934;28;20027;-80
2022/03/17 07:40:12;;;;;;;100.43;52.78;;;;;;;;;;5138483;28;20027;-81
2022/03/17 07:42:38;;;;;;;101.40;55.22;;;;;;;;;;5138365;28;20091;-82
2022/03/17 07:45:05;;;;;;;98.97;54.78;;;;;;;;;;5139913;28;20051;-82
2022/03/17 07:47:32;;;;;;;102.05;53.47;;;;;;;;;;5112257;28;20047;-81
2022/03/17 07:50:00;;;;;;;98.15;53.95;;;;;;;;;;5122955;28;20047;-81
2022/03/17 07:52:26;;;;;;;99.68;50.72;;;;;;;;;;5106836;28;20040;-82
2022/03/17 07:54:52;;;;;;;86.72;47.28;;;;;;;;;;5121798;28;20425;-81
2022/03/17 07:57:19;;;;;;;94.28;50.78;;;;;;;;;;5122913;28;20055;-79
2022/03/17 07:59:45;;;;;;;86.47;49.60;;;;;;;;;;5128620;28;20067;-80
2022/03/17 08:02:11;;;;;;;80.00;46.03;;;;;;;;;;5127390;28;20047;-80
2022/03/17 08:04:37;;;;;;;72.45;41.75;;;;;;;;;;5110124;28;20038;-82
2022/03/17 08:07:03;;;;;;;73.55;41.88;;;;;;;;;;5112035;28;20120;-82
2022/03/17 08:09:30;;;;;;;64.80;38.75;;;;;;;;;;5126301;28;20047;-82
2022/03/17 08:11:56;;;;;;;62.78;38.45;;;;;;;;;;5127756;28;20159;-83
2022/03/17 08:14:22;;;;;;;66.38;38.17;;;;;;;;;;5111510;28;20039;-82
2022/03/17 08:16:48;;;;;;;62.13;35.30;;;;;;;;;;5128747;28;20069;-82
2022/03/17 08:19:14;;;;;;;64.72;39.38;;;;;;;;;;5129663;28;20046;-82
2022/03/17 08:21:40;;;;;;;62.28;37.83;;;;;;;;;;5110486;28;20039;-81
2022/03/17 08:24:06;;;;;;;66.80;37.75;;;;;;;;;;5128241;28;20032;-82
2022/03/17 08:26:32;;;;;;;56.33;36.83;;;;;;;;;;5112705;28;20431;-83
2022/03/17 08:28:59;;;;;;;67.70;37.97;;;;;;;;;;5112915;28;20375;-82
2022/03/17 08:31:25;;;;;;;60.95;36.58;;;;;;;;;;5131093;28;20036;-80
2022/03/17 08:33:51;;;;;;;51.53;32.75;;;;;;;;;;5128657;28;20058;-83
2022/03/17 08:36:17;;;;;;;48.10;26.98;;;;;;;;;;5111359;28;20137;-83
2022/03/17 08:38:43;;;;;;;46.53;23.85;;;;;;;;;;5133017;28;20040;-82
2022/03/17 08:41:09;;;;;;;42.28;24.30;;;;;;;;;;5120505;28;20095;-82
2022/03/17 08:43:35;;;;;;;39.40;21.83;;;;;;;;;;5130693;28;20047;-82
2022/03/17 08:51:30;;;;;;;30.55;16.90;;;;;;;;;;5125613;28;20099;-80
2022/03/17 08:53:56;;;;;;;31.55;16.58;;;;;;;;;;5106677;28;20050;-80
2022/03/17 08:56:22;;;;;;;24.65;14.48;;;;;;;;;;5133634;28;20043;-80
2022/03/17 08:58:48;;;;;;;28.95;13.25;;;;;;;;;;5120337;28;20043;-80
2022/03/17 09:01:14;;;;;;;22.15;11.60;;;;;;;;;;5124072;28;20463;-81
2022/03/17 09:03:40;;;;;;;21.25;10.73;;;;;;;;;;5115618;28;20081;-81
2022/03/17 09:06:06;;;;;;;22.55;11.27;;;;;;;;;;5114846;28;20039;-81
2022/03/17 09:08:32;;;;;;;19.60;10.57;;;;;;;;;;5132007;28;20039;-81
2022/03/17 09:10:58;;;;;;;18.88;9.25;;;;;;;;;;5115951;28;20028;-81
2022/03/17 09:13:25;;;;;;;16.58;8.10;;;;;;;;;;5114391;28;20031;-82
2022/03/17 09:15:51;;;;;;;14.88;7.68;;;;;;;;;;5113813;28;20042;-81
2022/03/17 09:18:17;;;;;;;16.73;7.60;;;;;;;;;;5129214;28;20106;-82
2022/03/17 09:20:43;;;;;;;14.75;7.45;;;;;;;;;;5122972;28;20035;-80
2022/03/17 09:23:09;;;;;;;14.93;7.10;;;;;;;;;;5127281;28;20046;-82
2022/03/17 09:25:35;;;;;;;16.90;6.80;;;;;;;;;;5112555;28;20472;-82
2022/03/17 09:28:02;;;;;;;17.50;5.80;;;;;;;;;;5129927;28;20044;-83
2022/03/17 09:30:28;;;;;;;14.00;6.95;;;;;;;;;;5112889;28;20145;-82
2022/03/17 09:32:54;;;;;;;16.98;7.25;;;;;;;;;;5112806;28;20059;-83
2022/03/17 09:35:20;;;;;;;16.88;8.00;;;;;;;;;;5109597;28;20040;-83
2022/03/17 09:37:46;;;;;;;13.10;7.07;;;;;;;;;;5106433;28;20128;-83
2022/03/17 09:40:12;;;;;;;15.68;7.32;;;;;;;;;;5105413;28;20039;-82
2022/03/17 09:42:38;;;;;;;14.82;7.30;;;;;;;;;;5121981;28;20050;-83
2022/03/17 09:45:05;;;;;;;17.80;7.38;;;;;;;;;;5105200;28;20039;-82
2022/03/17 09:47:36;;;;;;;16.88;7.00;;;;;;;;;;5105162;28;20071;-83
2022/03/17 09:50:02;;;;;;;14.70;6.90;;;;;;;;;;5105106;28;20050;-83
2022/03/17 09:52:29;;;;;;;12.77;6.75;;;;;;;;;;5122729;28;20043;-82
2022/03/17 09:54:55;;;;;;;11.57;6.47;;;;;;;;;;5104900;28;20091;-82
2022/03/17 09:57:21;;;;;;;14.02;7.00;;;;;;;;;;5106442;28;20075;-81
2022/03/17 09:59:53;;;;;;;12.57;6.57;;;;;;;;;;5125418;28;20040;-81
2022/03/17 10:02:19;;;;;;;17.25;6.32;;;;;;;;;;5131668;28;20059;-82
2022/03/17 10:04:46;;;;;;;14.27;6.18;;;;;;;;;;5113026;28;20043;-82
2022/03/17 10:07:12;;;;;;;13.65;6.50;;;;;;;;;;5112317;28;20517;-81
2022/03/17 10:09:38;;;;;;;14.50;6.50;;;;;;;;;;5127521;28;20027;-82
2022/03/17 10:12:06;;;;;;;13.52;7.28;;;;;;;;;;5130265;28;20024;-82
2022/03/17 10:14:58;;;;;;;12.93;7.15;;;;;;;;;;5116033;28;20115;-82
2022/03/17 10:17:37;;;;;;;19.20;7.70;;;;;;;;;;5131312;28;20020;-81
2022/03/17 10:20:22;;;;;;;16.92;7.28;;;;;;;;;;5134053;28;20039;-79
2022/03/17 10:22:51;;;;;;;15.70;7.45;;;;;;;;;;5122631;28;20066;-80
2022/03/17 10:25:18;;;;;;;17.15;8.05;;;;;;;;;;5137439;28;20040;-83
2022/03/17 10:27:49;;;;;;;16.50;7.60;;;;;;;;;;5136775;28;20023;-82
2022/03/17 10:30:15;;;;;;;15.55;7.25;;;;;;;;;;5136939;28;20036;-83
2022/03/17 10:32:53;;;;;;;18.65;8.07;;;;;;;;;;5119230;28;20146;-83
2022/03/17 10:35:23;;;;;;;15.80;7.57;;;;;;;;;;5120014;28;20058;-83
2022/03/17 10:37:49;;;;;;;17.25;7.43;;;;;;;;;;5136471;28;20036;-81
2022/03/17 10:40:15;;;;;;;16.50;7.05;;;;;;;;;;5120016;28;20061;-81
2022/03/17 10:42:41;;;;;;;20.13;7.18;;;;;;;;;;5136086;28;20043;-82
2022/03/17 10:45:08;;;;;;;16.10;7.13;;;;;;;;;;5125523;28;20043;-82
2022/03/17 10:47:37;;;;;;;15.82;7.38;;;;;;;;;;5113668;28;20062;-80
2022/03/17 10:50:10;;;;;;;19.70;8.40;;;;;;;;;;5130636;28;20042;-80
2022/03/17 10:52:36;;;;;;;;;;;;;;;;;;5111538;28;20039;-80
2022/03/17 10:55:03;;;;;;;20.80;8.38;;;;;;;;;;5126347;28;19912;-82
2022/03/17 10:57:29;;;;;;;16.70;7.68;;;;;;;;;;5128323;28;20037;-78
2022/03/17 10:59:56;;;;;;;17.25;6.72;;;;;;;;;;5139264;28;20090;-78
2022/03/17 11:02:24;;;;;;;18.33;6.93;;;;;;;;;;5122112;28;20059;-80
2022/03/17 11:04:51;;;;;;;17.38;6.43;;;;;;;;;;5109079;28;20054;-82
2022/03/17 11:07:19;;;;;;;14.32;6.90;;;;;;;;;;5124996;28;20043;-82
2022/03/17 11:09:45;;;;;;;20.45;6.90;;;;;;;;;;5106789;28;20481;-82
2022/03/17 11:12:17;;;;;;;17.33;6.72;;;;;;;;;;5104921;28;20140;-82
2022/03/17 11:14:43;;;;;;;20.50;7.32;;;;;;;;;;5105800;28;20035;-82
2022/03/17 11:17:10;;;;;;;22.58;7.25;;;;;;;;;;5105309;28;20047;-81
2022/03/17 11:19:36;;;;;;;18.42;7.28;;;;;;;;;;5120161;28;20043;-81
2022/03/17 11:22:08;;;;;;;18.40;8.05;;;;;;;;;;5124107;28;20046;-83
2022/03/17 11:24:34;;;;;;;16.00;8.15;;;;;;;;;;5123032;28;20077;-81
2022/03/17 11:27:11;;;;;;;20.20;8.35;;;;;;;;;;5107456;28;20073;-82
2022/03/17 11:29:48;;;;;;;21.20;8.57;;;;;;;;;;5125194;28;20375;-81
2022/03/17 11:32:29;;;;;;;21.25;8.20;;;;;;;;;;5107288;28;20036;-82
2022/03/17 11:35:05;;;;;;;16.70;7.95;;;;;;;;;;5125346;28;20038;-82
2022/03/17 11:37:33;;;;;;;19.30;8.07;;;;;;;;;;5109061;28;20039;-82
2022/03/17 11:40:13;;;;;;;22.52;8.13;;;;;;;;;;5127286;28;20042;-81
2022/03/17 11:42:42;;;;;;;25.85;7.93;;;;;;;;;;5122910;28;20036;-81
2022/03/17 11:45:34;;;;;;;18.08;6.38;;;;;;;;;;5122885;28;20044;-81
2022/03/17 11:48:01;;;;;;;15.52;5.13;;;;;;;;;;5123022;28;20039;-81
2022/03/17 11:50:28;;;;;;;16.08;5.53;;;;;;;;;;5102575;28;20050;-80
2022/03/17 11:53:04;;;;;;;15.48;5.55;;;;;;;;;;5120164;28;20089;-80
2022/03/17 11:55:30;;;;;;;15.02;6.45;;;;;;;;;;5119103;28;20031;-81
2022/03/17 11:58:15;;;;;;;16.75;6.93;;;;;;;;;;5101974;28;20036;-81
2022/03/17 12:00:45;;;;;;;12.90;6.03;;;;;;;;;;5119394;28;20055;-81
2022/03/17 12:03:11;;;;;;;17.13;6.38;;;;;;;;;;5100421;28;20403;-81
2022/03/17 12:05:43;;;;;;;16.60;6.50;;;;;;;;;;5101672;28;20111;-81
2022/03/17 12:08:09;;;;;;;15.43;6.35;;;;;;;;;;5119624;28;20048;-81
2022/03/17 12:10:54;;;;;;;15.23;6.40;;;;;;;;;;5101814;28;20039;-81
2022/03/17 12:13:21;;;;;;;14.00;5.97;;;;;;;;;;5118729;28;20035;-81
2022/03/17 12:15:51;;;;;;;18.50;6.53;;;;;;;;;;5104747;28;20039;-82
2022/03/17 12:18:17;;;;;;;15.20;6.28;;;;;;;;;;5107895;28;20055;-82
2022/03/17 12:20:46;;;;;;;17.48;6.65;;;;;;;;;;5108362;28;20049;-82
2022/03/17 12:23:31;;;;;;;13.52;5.93;;;;;;;;;;5125743;28;20104;-81
2022/03/17 12:26:04;;;;;;;18.27;5.90;;;;;;;;;;5126529;28;20035;-81
2022/03/17 12:28:50;;;;;;;11.55;5.60;;;;;;;;;;5111154;28;20110;-83
2022/03/17 12:31:16;;;;;;;18.13;5.75;;;;;;;;;;5128685;28;20051;-82
2022/03/17 12:33:45;;;;;;;13.45;5.60;;;;;;;;;;5128045;28;20043;-81
2022/03/17 12:36:11;;;;;;;14.07;5.85;;;;;;;;;;5108575;28;20118;-82
2022/03/17 12:38:37;;;;;;;18.00;5.97;;;;;;;;;;5109452;28;20044;-80
2022/03/17 12:41:03;;;;;;;12.38;5.90;;;;;;;;;;5109689;28;20035;-81
2022/03/17 12:43:33;;;;;;;20.33;6.38;;;;;;;;;;5125440;28;20061;-82
2022/03/17 12:45:59;;;;;;;19.90;6.50;;;;;;;;;;5127689;28;20040;-82
2022/03/17 12:48:25;;;;;;;15.40;5.82;;;;;;;;;;5113399;28;20042;-83
2022/03/17 12:50:51;;;;;;;17.60;5.78;;;;;;;;;;5134980;28;20043;-82
2022/03/17 12:53:17;;;;;;;18.33;5.93;;;;;;;;;;5137140;28;20032;-82
2022/03/17 12:55:43;;;;;;;13.52;5.25;;;;;;;;;;5137463;28;20132;-82
2022/03/17 12:58:15;;;;;;;13.73;6.00;;;;;;;;;;5136339;28;20043;-82
2022/03/17 13:00:42;;;;;;;16.80;5.78;;;;;;;;;;5120318;28;20039;-80
2022/03/17 13:03:08;;;;;;;14.38;4.70;;;;;;;;;;5137109;28;20103;-81
2022/03/17 13:08:24;;;;;;;18.17;4.72;;;;;;;;;;5074049;28;20107;-82
2022/03/17 13:16:24;;;;;;;15.02;5.50;;;;;;;;;;5130745;28;20051;-80
2022/03/17 13:18:50;;;;;;;22.30;5.88;;;;;;;;;;5130737;28;20090;-79
2022/03/17 13:21:19;;;;;;;12.60;4.78;;;;;;;;;;5111201;28;20042;-81
2022/03/17 13:23:45;;;;;;;13.68;4.70;;;;;;;;;;5108717;28;20038;-81
2022/03/17 13:26:12;;;;;;;10.32;3.85;;;;;;;;;;5128565;28;20031;-82
2022/03/17 13:28:40;;;;;;;18.73;5.80;;;;;;;;;;5125647;28;20059;-82
2022/03/17 13:31:08;;;;;;;14.23;5.15;;;;;;;;;;5107912;28;20049;-82
2022/03/17 13:33:34;;;;;;;19.80;6.03;;;;;;;;;;5107167;28;20088;-81
2022/03/17 13:36:00;;;;;;;13.25;4.47;;;;;;;;;;5124463;28;20442;-82
2022/03/17 13:38:33;;;;;;;11.45;3.85;;;;;;;;;;5107606;28;20032;-82
2022/03/17 13:41:00;;;;;;;;;;;;;;;;;;5108853;28;20070;-81
2022/03/17 13:43:26;;;;;;;11.73;3.22;;;;;;;;;;5124715;27;19907;-81
2022/03/17 13:45:52;;;;;;;17.50;2.90;;;;;;;;;;5124003;28;20062;-81
2022/03/17 13:48:20;;;;;;;11.57;3.55;;;;;;;;;;5121115;28;20045;-80
2022/03/17 13:50:49;;;;;;;14.30;3.72;;;;;;;;;;5120936;28;20031;-82
2022/03/17 13:53:25;;;;;;;15.65;3.75;;;;;;;;;;5122652;28;20066;-82
2022/03/17 13:55:59;;;;;;;13.38;4.00;;;;;;;;;;5124518;28;20074;-83
2022/03/17 13:58:35;;;;;;;17.80;3.60;;;;;;;;;;5126365;28;20039;-84
2022/03/17 14:01:16;;;;;;;12.98;3.85;;;;;;;;;;5108630;28;20064;-84
2022/03/17 14:03:45;;;;;;;11.40;3.53;;;;;;;;;;5116588;28;20136;-81
2022/03/17 14:06:21;;;;;;;14.13;3.53;;;;;;;;;;5132931;28;20077;-81
2022/03/17 14:08:48;;;;;;;14.93;3.90;;;;;;;;;;5128259;28;20097;-83
2022/03/17 14:11:18;;;;;;;20.92;3.85;;;;;;;;;;5124880;28;20039;-81
2022/03/17 14:13:54;;;;;;;13.20;4.18;;;;;;;;;;5117807;28;20050;-80
2022/03/17 14:16:21;;;;;;;12.63;3.67;;;;;;;;;;5113629;28;20039;-81
2022/03/17 14:18:47;;;;;;;14.75;3.67;;;;;;;;;;5115836;28;20052;-79
2022/03/17 14:21:13;;;;;;;12.00;3.35;;;;;;;;;;5130908;28;20040;-79
2022/03/17 14:26:25;;;;;;;17.05;4.53;;;;;;;;;;5121282;28;20035;-81
2022/03/17 14:28:51;;;;;;;17.42;3.70;;;;;;;;;;5121168;28;20081;-80
2022/03/17 14:31:20;;;;;;;17.17;3.90;;;;;;;;;;5100940;28;20099;-81
2022/03/17 14:33:46;;;;;;;15.60;4.60;;;;;;;;;;5118000;28;20084;-82
2022/03/17 14:36:12;;;;;;;16.40;4.40;;;;;;;;;;5117333;28;20040;-82
2022/03/17 14:38:39;;;;;;;18.67;4.00;;;;;;;;;;5100064;28;20037;-82
2022/03/17 14:41:06;;;;;;;18.70;3.75;;;;;;;;;;5117261;28;20097;-82
2022/03/17 14:43:32;;;;;;;15.20;3.85;;;;;;;;;;5100040;28;20051;-82
2022/03/17 14:45:58;;;;;;;17.35;3.80;;;;;;;;;;5100069;28;20035;-83
2022/03/17 14:48:24;;;;;;;16.20;3.33;;;;;;;;;;5117275;28;20355;-83